createdAt,value
2023-03-17T00:03:27.333Z,97144.69
2023-03-17T00:08:32.511Z,97138.53
2023-03-17T00:13:35.303Z,97137.25
2023-03-17T00:18:37.095Z,97137.25
2023-03-17T00:23:39.647Z,97136.28
2023-03-17T00:28:41.477Z,97121.75
2023-03-17T00:33:45.234Z,97129.63
2023-03-17T00:38:48.567Z,97125.91
2023-03-17T00:43:50.811Z,97134.59
2023-03-17T00:48:52.952Z,97127.69
2023-03-17T00:53:55.057Z,97117.03
2023-03-17T00:58:56.729Z,97115.00
2023-03-17T01:03:58.407Z,97108.31
2023-03-17T01:09:00.144Z,97092.28
2023-03-17T01:14:01.831Z,97086.25
2023-03-17T01:19:04.862Z,97074.06
2023-03-17T01:24:06.726Z,97057.47
2023-03-17T01:29:08.589Z,97048.56
2023-03-17T01:34:11.529Z,97051.78
2023-03-17T01:39:13.143Z,97045.41
2023-03-17T01:44:19.216Z,97048.50
2023-03-17T01:49:30.762Z,97049.28
2023-03-17T01:54:39.737Z,97041.84
2023-03-17T01:59:52.988Z,97044.81
2023-03-17T02:04:55.236Z,97042.66
2023-03-17T02:09:58.114Z,97039.28
2023-03-17T02:15:00.719Z,97026.63
2023-03-17T02:20:29.482Z,97034.34
2023-03-17T02:25:34.458Z,97024.38
2023-03-17T02:30:37.885Z,97016.53
2023-03-17T02:35:40.821Z,97016.59
2023-03-17T02:40:43.231Z,97012.22
2023-03-17T02:45:45.166Z,96995.44
2023-03-17T02:50:46.901Z,96996.25
2023-03-17T02:55:48.831Z,96980.28
2023-03-17T03:00:50.507Z,96977.88
2023-03-17T03:05:52.247Z,96986.78
2023-03-17T03:10:54.964Z,96989.66
2023-03-17T03:15:56.627Z,97005.91
2023-03-17T03:20:58.491Z,97014.66
2023-03-17T03:26:00.230Z,97016.09
2023-03-17T03:31:01.965Z,97004.34
2023-03-17T03:36:03.930Z,96999.75
2023-03-17T03:41:06.355Z,97010.63
2023-03-17T03:46:08.243Z,97012.88
2023-03-17T03:51:10.431Z,97006.00
2023-03-17T03:56:12.413Z,97001.38
2023-03-17T04:01:14.473Z,96991.63
2023-03-17T04:06:17.019Z,96990.66
2023-03-17T04:11:18.738Z,96985.25
2023-03-17T04:16:20.593Z,96980.66
2023-03-17T04:21:22.365Z,96982.38
2023-03-17T04:26:24.261Z,96984.94
2023-03-17T04:31:26.248Z,96979.59
2023-03-17T04:36:28.135Z,96971.69
2023-03-17T04:41:29.850Z,96979.94
2023-03-17T04:46:31.804Z,96988.59
2023-03-17T04:51:34.014Z,96994.16
2023-03-17T04:56:36.208Z,96985.28
2023-03-17T05:01:39.202Z,96974.00
2023-03-17T05:06:41.167Z,96963.59
2023-03-17T05:11:42.995Z,96968.97
2023-03-17T05:16:47.820Z,96959.41
2023-03-17T05:21:49.786Z,96974.81
2023-03-17T05:26:52.119Z,96954.09
2023-03-17T05:31:53.949Z,96963.16
2023-03-17T05:36:55.727Z,96966.56
2023-03-17T05:41:58.044Z,96974.81
2023-03-17T05:47:00.119Z,96970.97
2023-03-17T05:52:01.997Z,96988.94
2023-03-17T05:57:03.990Z,96995.66
2023-03-17T06:02:05.848Z,96991.88
2023-03-17T06:07:09.460Z,96994.44
2023-03-17T06:12:11.371Z,96981.03
2023-03-17T06:17:13.362Z,96973.34
2023-03-17T06:22:15.993Z,96956.22
2023-03-17T06:27:17.988Z,96958.47
2023-03-17T06:32:21.082Z,96962.00
2023-03-17T06:37:23.465Z,96956.34
2023-03-17T06:42:25.166Z,96964.16
2023-03-17T06:47:27.238Z,96960.63
2023-03-17T06:52:28.983Z,96941.63
2023-03-17T06:57:30.769Z,96932.09
2023-03-17T07:02:33.737Z,96936.09
2023-03-17T07:07:37.059Z,96952.84
2023-03-17T07:12:39.258Z,96958.94
2023-03-17T07:17:42.009Z,96952.25
2023-03-17T07:22:43.679Z,96954.59
2023-03-17T07:27:45.870Z,96966.75
2023-03-17T07:32:48.687Z,96956.03
2023-03-17T07:37:50.627Z,96954.38
2023-03-17T07:42:52.406Z,96960.34
2023-03-17T07:47:54.168Z,96956.31
2023-03-17T07:52:56.449Z,96952.59
2023-03-17T07:57:58.965Z,96947.47
2023-03-17T08:03:09.841Z,96960.63
2023-03-17T08:08:12.682Z,96961.50
2023-03-17T08:13:14.788Z,96953.16
2023-03-17T08:18:16.558Z,96941.00
2023-03-17T08:23:19.310Z,96937.28
2023-03-17T08:28:20.994Z,96926.50
2023-03-17T08:33:22.791Z,96934.22
2023-03-17T08:38:25.939Z,96940.91
2023-03-17T08:43:28.843Z,96952.09
2023-03-17T08:48:32.031Z,96951.34
2023-03-17T08:53:35.018Z,96955.38
2023-03-17T08:58:39.821Z,96945.00
2023-03-17T09:03:42.342Z,96936.97
2023-03-17T09:08:45.074Z,96933.88
2023-03-17T09:13:47.959Z,96921.34
2023-03-17T09:18:49.814Z,96920.69
2023-03-17T09:23:51.518Z,96909.94
2023-03-17T09:28:53.159Z,96903.78
2023-03-17T09:33:54.868Z,96888.56
2023-03-17T09:38:56.557Z,96876.34
2023-03-17T09:44:04.321Z,96879.63
2023-03-17T09:49:13.920Z,96883.53
2023-03-17T09:54:31.267Z,96881.09
2023-03-17T09:59:42.023Z,96883.81
2023-03-17T10:04:45.047Z,96890.91
2023-03-17T10:09:58.165Z,96883.22
2023-03-17T10:15:06.700Z,96865.94
2023-03-17T10:20:13.482Z,96860.72
2023-03-17T10:25:24.479Z,96846.69
2023-03-17T10:30:27.379Z,96844.94
2023-03-17T10:35:30.825Z,96841.53
2023-03-17T10:40:33.087Z,96832.31
2023-03-17T10:45:40.932Z,96834.63
2023-03-17T10:50:48.630Z,96824.03
2023-03-17T10:55:52.868Z,96829.38
2023-03-17T11:01:05.719Z,96821.56
2023-03-17T11:06:10.566Z,96814.50
2023-03-17T11:11:25.150Z,96811.31
2023-03-17T11:16:27.272Z,96807.06
2023-03-17T11:21:32.571Z,96803.81
2023-03-17T11:26:57.368Z,96797.53
2023-03-17T11:32:25.355Z,96798.88
2023-03-17T11:37:56.622Z,96795.44
2023-03-17T11:43:17.947Z,96789.63
2023-03-17T11:48:37.627Z,96782.16
2023-03-17T11:53:59.768Z,96782.38
2023-03-17T11:59:31.492Z,96779.16
2023-03-17T12:04:37.944Z,96760.44
2023-03-17T12:09:46.172Z,96764.81
2023-03-17T12:14:52.307Z,96751.44
2023-03-17T12:20:08.710Z,96749.69
2023-03-17T12:25:21.288Z,96737.94
2023-03-17T12:30:48.363Z,96743.97
2023-03-17T12:35:50.896Z,96737.72
2023-03-17T12:41:15.946Z,96736.38
2023-03-17T12:46:37.745Z,96724.34
2023-03-17T12:51:52.101Z,96713.72
2023-03-17T12:57:02.241Z,96704.53
2023-03-17T13:02:38.236Z,96689.13
2023-03-17T13:07:51.138Z,96681.06
2023-03-17T13:13:05.868Z,96694.75
2023-03-17T13:18:16.463Z,96685.59
2023-03-17T13:23:24.235Z,96678.81
2023-03-17T13:28:33.606Z,96676.91
2023-03-17T13:33:41.898Z,96675.75
2023-03-17T13:39:05.037Z,96668.50
2023-03-17T13:44:30.200Z,96655.66
2023-03-17T13:49:32.439Z,96652.91
2023-03-17T13:54:41.142Z,96660.25
2023-03-17T14:00:04.064Z,96659.41
2023-03-17T14:05:17.202Z,96649.38
2023-03-17T14:10:31.892Z,96637.44
2023-03-17T14:15:56.319Z,96622.69
2023-03-17T14:21:01.388Z,96632.38
2023-03-17T14:26:05.058Z,96627.84
2023-03-17T14:31:15.936Z,96622.00
2023-03-17T14:36:18.288Z,96624.63
2023-03-17T14:41:26.196Z,96618.91
2023-03-17T14:46:33.997Z,96620.06
2023-03-17T14:51:37.708Z,96618.16
2023-03-17T14:56:48.709Z,96602.53
2023-03-17T15:01:58.320Z,96594.53
2023-03-17T15:07:03.665Z,96591.28
2023-03-17T15:12:15.720Z,96600.56
2023-03-17T15:17:21.095Z,96588.00
2023-03-17T15:22:27.674Z,96591.09
2023-03-17T15:27:31.641Z,96583.97
2023-03-17T15:32:33.562Z,96583.00
2023-03-17T15:37:35.480Z,96582.66
2023-03-17T15:42:39.369Z,96575.16
2023-03-17T15:47:43.125Z,96573.63
2023-03-17T15:52:45.939Z,96555.25
2023-03-17T15:57:54.675Z,96564.63
2023-03-17T16:03:02.575Z,96565.41
2023-03-17T16:08:04.315Z,96545.25
2023-03-17T16:13:06.022Z,96545.19
2023-03-17T16:18:14.771Z,96546.38
2023-03-17T16:23:19.306Z,96545.03
2023-03-17T16:28:26.033Z,96534.16
2023-03-17T16:33:39.558Z,96537.50
2023-03-17T16:38:41.342Z,96542.53
2023-03-17T16:43:45.417Z,96532.44
2023-03-17T16:48:49.577Z,96531.03
2023-03-17T16:53:51.739Z,96536.09
2023-03-17T16:58:53.411Z,96541.09
2023-03-17T17:03:55.713Z,96549.50
2023-03-17T17:08:57.708Z,96553.47
2023-03-17T17:13:59.868Z,96561.06
2023-03-17T17:19:02.974Z,96558.19
2023-03-17T17:24:04.803Z,96573.81
2023-03-17T17:29:06.555Z,96577.63
2023-03-17T17:34:08.325Z,96579.75
2023-03-17T17:39:11.241Z,96578.72
2023-03-17T17:44:12.922Z,96584.31
2023-03-17T17:49:14.598Z,96585.00
2023-03-17T17:54:16.371Z,96585.75
2023-03-17T17:59:18.073Z,96589.94
2023-03-17T18:04:22.374Z,96583.97
2023-03-17T18:09:24.149Z,96589.81
2023-03-17T18:14:26.524Z,96598.53
2023-03-17T18:19:28.374Z,96595.75
2023-03-17T18:24:30.139Z,96595.56
2023-03-17T18:29:31.909Z,96593.66
2023-03-17T18:34:44.878Z,96597.31
2023-03-17T18:39:55.499Z,96605.81
2023-03-17T18:45:09.697Z,96605.06
2023-03-17T18:50:19.963Z,96596.13
2023-03-17T18:55:24.130Z,96596.72
2023-03-17T19:00:26.550Z,96597.81
2023-03-17T19:05:28.471Z,96597.03
2023-03-17T19:10:31.400Z,96592.66
2023-03-17T19:15:33.719Z,96603.06
2023-03-17T19:20:36.272Z,96602.53
2023-03-17T19:25:38.459Z,96597.63
2023-03-17T19:30:40.491Z,96598.22
2023-03-17T19:35:44.278Z,96596.56
2023-03-17T19:40:46.184Z,96600.94
2023-03-17T19:45:48.031Z,96603.66
2023-03-17T19:50:50.269Z,96611.84
2023-03-17T19:55:51.889Z,96624.91
2023-03-17T20:00:53.687Z,96634.19
2023-03-17T20:05:55.420Z,96628.16
2023-03-17T20:10:57.284Z,96626.56
2023-03-17T20:15:59.212Z,96640.13
2023-03-17T20:21:05.363Z,96640.38
2023-03-17T20:26:08.316Z,96644.69
2023-03-17T20:31:10.467Z,96647.31
2023-03-17T20:36:12.927Z,96660.09
2023-03-17T20:41:17.556Z,96651.88
2023-03-17T20:46:21.469Z,96648.50
2023-03-17T20:51:23.184Z,96657.13
2023-03-17T20:56:26.720Z,96640.16
2023-03-17T21:01:29.312Z,96636.75
2023-03-17T21:06:31.402Z,96635.53
2023-03-17T21:11:33.348Z,96645.88
2023-03-17T21:16:36.020Z,96646.22
2023-03-17T21:21:37.778Z,96639.91
2023-03-17T21:26:40.119Z,96644.53
2023-03-17T21:31:42.334Z,96653.00
2023-03-17T21:36:44.686Z,96660.03
2023-03-17T21:41:48.755Z,96658.84
2023-03-17T21:46:50.730Z,96664.22
2023-03-17T21:51:52.764Z,96661.41
2023-03-17T21:56:54.540Z,96664.53
2023-03-17T22:01:56.683Z,96660.13
2023-03-17T22:06:58.942Z,96672.28
2023-03-17T22:12:00.797Z,96682.34
2023-03-17T22:17:05.303Z,96679.00
2023-03-17T22:22:07.007Z,96671.34
2023-03-17T22:27:08.950Z,96680.72
2023-03-17T22:32:10.962Z,96684.25
2023-03-17T22:37:12.610Z,96688.63
2023-03-17T22:42:14.261Z,96686.69
2023-03-17T22:47:16.249Z,96672.41
2023-03-17T22:52:18.943Z,96678.53
2023-03-17T22:57:21.586Z,96677.94
2023-03-17T23:02:23.295Z,96679.78
2023-03-17T23:07:24.982Z,96680.41
2023-03-17T23:12:28.197Z,96686.34
2023-03-17T23:17:29.997Z,96680.56
2023-03-17T23:22:32.616Z,96686.97
2023-03-17T23:27:34.416Z,96689.94
2023-03-17T23:32:36.601Z,96696.03
2023-03-17T23:37:38.661Z,96702.56
2023-03-17T23:42:40.973Z,96710.38
2023-03-17T23:47:43.552Z,96719.09
2023-03-17T23:52:45.297Z,96719.75
2023-03-17T23:57:47.219Z,96717.47
